Time;durP1;ratioP1;P1;durP2;ratioP2;P2;SDS_P1;SDS_P2;PMS_P1;PMS_P2;Temp;Humidity;BMP_temperature;BMP_pressure;BME280_temperature;BME280_humidity;BME280_pressure;Samples;Min_cycle;Max_cycle;Signal;HPM_P1;HPM_P2
2023/06/21 00:00:12;;;;;;;7.80;4.88;;;;;;;19.85;92.70;101246.53;5015364;28;100880;-26
2023/06/21 00:02:39;;;;;;;11.18;4.85;;;;;;;19.82;92.47;101252.34;5015825;28;96510;-26
2023/06/21 00:05:06;;;;;;;8.20;5.35;;;;;;;19.82;92.55;101243.22;5015731;28;96929;-26
2023/06/21 00:07:31;;;;;;;8.95;5.28;;;;;;;19.69;93.06;101238.03;5015350;28;101098;-26
2023/06/21 00:09:57;;;;;;;7.93;4.82;;;;;;;19.72;92.20;101235.00;5017295;28;97869;-26
2023/06/21 00:12:22;;;;;;;11.20;4.90;;;;;;;19.76;92.45;101236.44;5016873;28;105414;-26
2023/06/21 00:14:47;;;;;;;9.18;4.85;;;;;;;19.74;92.04;101232.97;5017105;28;96867;-27
2023/06/21 00:17:13;;;;;;;9.32;4.95;;;;;;;19.79;91.95;101246.28;5016312;28;106644;-26
2023/06/21 00:19:39;;;;;;;8.55;4.38;;;;;;;19.76;91.68;101257.53;5016775;28;97764;-26
2023/06/21 00:22:05;;;;;;;6.85;4.13;;;;;;;19.69;92.40;101254.53;5015313;28;96700;-26
2023/06/21 00:24:30;;;;;;;7.45;4.47;;;;;;;19.63;92.29;101277.91;5017304;28;96756;-27
2023/06/21 00:26:56;;;;;;;8.82;4.85;;;;;;;19.67;91.58;101273.00;5015584;28;110119;-26
2023/06/21 00:29:21;;;;;;;8.40;5.30;;;;;;;19.62;93.52;101273.44;5016411;28;97963;-27
2023/06/21 00:31:47;;;;;;;7.93;5.25;;;;;;;19.67;93.19;101284.00;5016577;28;96727;-27
2023/06/21 00:34:12;;;;;;;7.40;4.90;;;;;;;19.67;92.30;101287.63;5016958;28;96788;-26
2023/06/21 00:36:41;;;;;;;9.70;5.38;;;;;;;19.66;93.10;101288.63;5016123;28;99329;-26
2023/06/21 00:39:07;;;;;;;8.45;5.20;;;;;;;19.70;93.78;101297.47;5016256;28;98718;-27
2023/06/21 00:41:32;;;;;;;8.50;5.43;;;;;;;19.67;92.37;101295.00;5016144;28;96490;-26
2023/06/21 00:43:58;;;;;;;8.50;5.30;;;;;;;19.68;92.19;101299.50;5016627;28;96749;-26
2023/06/21 00:46:24;;;;;;;9.15;5.53;;;;;;;19.66;93.50;101294.13;4998289;28;101217;-26
2023/06/21 00:48:49;;;;;;;13.13;6.50;;;;;;;19.59;93.32;101311.31;5016285;28;97560;-28
2023/06/21 00:51:15;;;;;;;11.30;6.43;;;;;;;19.52;93.94;101305.50;5016566;28;96552;-26
2023/06/21 00:53:41;;;;;;;10.23;6.35;;;;;;;19.51;93.56;101317.53;5016433;28;96727;-26
2023/06/21 00:56:06;;;;;;;10.63;6.72;;;;;;;19.55;93.71;101321.75;5014707;28;100896;-29
2023/06/21 00:58:33;;;;;;;10.30;6.68;;;;;;;19.48;94.04;101312.31;5016255;28;97331;-26
2023/06/21 01:00:58;;;;;;;9.57;6.20;;;;;;;19.42;94.56;101318.38;5014864;28;96653;-27
2023/06/21 01:03:24;;;;;;;11.60;6.93;;;;;;;19.40;94.87;101315.78;5016355;28;96905;-26
2023/06/21 01:06:03;;;;;;;10.65;6.90;;;;;;;19.33;94.44;101309.09;5014049;28;100720;-26
2023/06/21 01:08:41;;;;;;;12.02;7.38;;;;;;;19.39;96.63;101330.50;5014380;28;100673;-26
2023/06/21 01:11:21;;;;;;;15.23;7.68;;;;;;;19.39;96.64;101333.25;5014737;28;96615;-26
2023/06/21 01:14:05;;;;;;;13.23;7.68;;;;;;;19.37;95.34;101320.66;5014621;28;96867;-26
2023/06/21 01:16:48;;;;;;;16.65;7.90;;;;;;;19.38;95.65;101328.78;5014393;28;101557;-26
2023/06/21 01:19:53;;;;;;;14.52;7.53;;;;;;;19.39;95.26;101341.50;5015578;28;97526;-26
2023/06/21 01:22:24;;;;;;;15.93;7.97;;;;;;;19.44;94.99;101330.94;5012629;28;96588;-26
2023/06/21 01:25:22;;;;;;;13.50;7.72;;;;;;;19.48;94.27;101324.16;5014759;28;96835;-26
2023/06/21 01:28:15;;;;;;;13.63;8.27;;;;;;;19.41;94.44;101320.25;5013626;28;102235;-27
2023/06/21 01:30:42;;;;;;;13.50;8.18;;;;;;;19.44;94.61;101310.84;5013919;28;101168;-26
2023/06/21 01:33:08;;;;;;;12.60;7.82;;;;;;;19.43;95.08;101325.63;5014020;28;96769;-27
2023/06/21 01:35:34;;;;;;;14.75;8.55;;;;;;;19.43;94.42;101310.00;5013379;28;96801;-26
2023/06/21 01:38:00;;;;;;;15.57;8.18;;;;;;;19.49;93.84;101322.28;5012687;28;100993;-27
2023/06/21 01:40:26;;;;;;;12.88;7.35;;;;;;;19.47;93.95;101319.69;5014900;28;110709;-27
2023/06/21 01:42:52;;;;;;;14.05;7.70;;;;;;;19.48;93.02;101324.16;5014101;28;96701;-26
2023/06/21 01:45:17;;;;;;;13.25;6.88;;;;;;;19.50;94.84;101337.78;5015719;28;96774;-27
2023/06/21 01:47:43;;;;;;;13.10;7.68;;;;;;;19.47;93.64;101332.53;5015461;28;97564;-27
2023/06/21 01:50:11;;;;;;;12.52;7.80;;;;;;;19.52;93.69;101330.25;5014055;28;101358;-26
2023/06/21 01:52:37;;;;;;;10.65;6.80;;;;;;;19.53;93.40;101334.75;5014012;28;96661;-26
2023/06/21 01:55:05;;;;;;;15.10;7.95;;;;;;;19.56;92.97;101325.34;5014028;28;96859;-26
2023/06/21 01:57:35;;;;;;;14.13;7.40;;;;;;;19.54;93.88;101328.22;5014381;28;98799;-27
2023/06/21 02:00:26;;;;;;;12.02;7.03;;;;;;;19.53;93.50;101343.00;5013593;28;101300;-26
2023/06/21 02:02:55;;;;;;;12.45;7.78;;;;;;;19.52;93.65;101343.97;5014518;28;96847;-26
2023/06/21 02:05:24;;;;;;;13.00;7.50;;;;;;;19.51;92.94;101342.25;5013854;28;96923;-26
2023/06/21 02:07:50;;;;;;;13.45;7.43;;;;;;;19.45;93.29;101342.81;5013557;28;101011;-27
2023/06/21 02:10:18;;;;;;;13.95;7.20;;;;;;;19.44;93.54;101349.31;5013449;28;100524;-26
2023/06/21 02:12:47;;;;;;;14.75;7.25;;;;;;;19.48;92.92;101368.13;5013621;28;96695;-28
2023/06/21 02:15:14;;;;;;;12.60;7.25;;;;;;;19.43;93.53;101350.34;5014084;28;96849;-26
2023/06/21 02:17:39;;;;;;;12.85;7.85;;;;;;;19.39;93.05;101346.13;5013330;28;100745;-27
2023/06/21 02:20:11;;;;;;;14.57;7.22;;;;;;;19.42;93.18;101356.84;5014306;28;114888;-26
2023/06/21 02:22:36;;;;;;;;;;;;;;;19.44;93.92;101366.66;5014752;28;96514;-26
2023/06/21 02:25:02;;;;;;;10.45;5.82;;;;;;;19.35;93.09;101362.00;5015001;28;96985;-26
2023/06/21 02:27:27;;;;;;;13.25;6.93;;;;;;;19.43;92.95;101372.31;5014507;28;98735;-26
2023/06/21 02:29:52;;;;;;;12.18;6.70;;;;;;;19.37;93.04;101376.47;5014252;28;104043;-26
2023/06/21 02:32:17;;;;;;;10.90;6.65;;;;;;;19.29;93.48;101377.19;5014483;28;101179;-26
2023/06/21 02:34:43;;;;;;;10.73;6.00;;;;;;;19.29;93.61;101373.56;5013929;28;102538;-27
2023/06/21 02:37:11;;;;;;;10.63;6.50;;;;;;;19.26;93.01;101371.09;5014495;28;99787;-26
2023/06/21 02:39:37;;;;;;;14.23;6.50;;;;;;;19.24;93.03;101375.88;5014604;28;99621;-26
2023/06/21 02:42:03;;;;;;;11.23;6.95;;;;;;;19.30;92.44;101383.53;5014650;28;96501;-26
2023/06/21 02:44:29;;;;;;;14.20;6.85;;;;;;;19.23;92.80;101366.72;5013335;28;96963;-26
2023/06/21 02:46:56;;;;;;;11.88;5.80;;;;;;;19.33;92.72;101380.53;5013537;28;99511;-27
2023/06/21 02:49:22;;;;;;;14.05;6.43;;;;;;;19.27;92.22;101381.94;5015131;28;101277;-26
2023/06/21 02:51:50;;;;;;;11.35;7.00;;;;;;;19.28;91.99;101377.31;5021479;28;96489;-27
2023/06/21 02:54:16;;;;;;;11.23;6.10;;;;;;;19.32;92.79;101389.75;5021222;28;96836;-26
2023/06/21 02:56:42;;;;;;;12.40;6.53;;;;;;;19.33;92.80;101386.03;5020999;28;98361;-26
2023/06/21 02:59:08;;;;;;;11.55;6.65;;;;;;;19.31;92.18;101388.91;5019385;28;100864;-26
2023/06/21 03:01:34;;;;;;;11.23;6.13;;;;;;;19.34;92.44;101389.63;5019721;28;96587;-26
2023/06/21 03:03:59;;;;;;;12.95;6.35;;;;;;;19.25;92.24;101378.44;5021505;28;96844;-26
2023/06/21 03:06:25;;;;;;;10.23;6.07;;;;;;;19.29;92.43;101392.78;5020736;28;99067;-26
2023/06/21 03:08:51;;;;;;;10.00;5.93;;;;;;;19.31;92.82;101393.53;5019304;28;100698;-26
2023/06/21 03:11:17;;;;;;;9.38;5.78;;;;;;;19.23;92.36;101393.34;5019397;28;96573;-27
2023/06/21 03:13:43;;;;;;;9.63;5.72;;;;;;;19.26;92.54;101398.56;5019321;28;96852;-28
2023/06/21 03:16:08;;;;;;;10.45;6.10;;;;;;;19.23;91.87;101394.19;5020817;28;97414;-27
2023/06/21 03:18:33;;;;;;;10.20;5.32;;;;;;;19.25;92.47;101405.06;5020901;28;97929;-26
2023/06/21 03:21:02;;;;;;;9.52;5.75;;;;;;;19.22;92.65;101410.84;5020943;28;96612;-28
2023/06/21 03:23:28;;;;;;;10.55;5.47;;;;;;;19.29;92.64;101417.53;5019575;28;96950;-26
2023/06/21 03:25:53;;;;;;;9.57;5.45;;;;;;;19.27;92.46;101431.38;5020638;28;98032;-27
2023/06/21 03:28:19;;;;;;;8.65;5.05;;;;;;;19.25;91.91;101429.78;5020543;28;98787;-26
2023/06/21 03:30:44;;;;;;;9.65;5.70;;;;;;;19.31;93.33;101437.47;5020791;28;96579;-26
2023/06/21 03:33:10;;;;;;;8.63;5.10;;;;;;;19.33;92.60;101440.97;5020912;28;96809;-26
2023/06/21 03:35:36;;;;;;;7.03;4.68;;;;;;;19.26;92.03;101435.16;5019355;28;99347;-26
2023/06/21 03:38:01;;;;;;;7.63;4.70;;;;;;;19.16;91.80;101438.84;5018909;28;100891;-26
2023/06/21 03:40:26;;;;;;;8.60;4.38;;;;;;;19.17;91.32;101444.19;5020773;28;96500;-26
2023/06/21 03:42:52;;;;;;;5.32;3.70;;;;;;;19.11;91.33;101458.47;5020725;28;96766;-26
2023/06/21 03:45:17;;;;;;;6.15;3.03;;;;;;;19.05;90.84;101453.53;5020175;28;99450;-26
2023/06/21 03:47:43;;;;;;;7.18;2.47;;;;;;;19.03;90.73;101463.78;5020496;28;97973;-26
2023/06/21 03:50:10;;;;;;;4.72;2.38;;;;;;;19.06;89.88;101460.75;5020570;28;96590;-26
2023/06/21 03:52:36;;;;;;;3.70;2.25;;;;;;;18.99;90.53;101465.91;5019629;28;96834;-27
2023/06/21 03:55:02;;;;;;;3.70;2.03;;;;;;;18.95;89.19;101461.69;5020071;28;99319;-26
2023/06/21 03:57:28;;;;;;;3.97;2.05;;;;;;;18.85;89.56;101464.38;5018379;28;102716;-26
2023/06/21 03:59:53;;;;;;;6.45;1.92;;;;;;;18.87;89.46;101466.97;5019927;28;96473;-26
2023/06/21 04:02:20;;;;;;;5.95;1.95;;;;;;;18.90;89.76;101488.66;5016545;28;96792;-26
2023/06/21 04:04:46;;;;;;;3.15;1.70;;;;;;;18.84;90.55;101478.22;5015434;28;101281;-26
2023/06/21 04:07:12;;;;;;;3.50;1.45;;;;;;;18.85;90.76;101471.72;5016894;28;97794;-26
2023/06/21 04:09:38;;;;;;;3.70;1.90;;;;;;;18.89;90.71;101471.31;5015563;28;96585;-26
2023/06/21 04:12:03;;;;;;;3.55;1.50;;;;;;;18.94;90.74;101472.81;5017106;28;96808;-27
2023/06/21 04:14:29;;;;;;;4.13;1.70;;;;;;;18.96;89.70;101479.03;5016808;28;97923;-26
2023/06/21 04:16:54;;;;;;;3.67;1.75;;;;;;;18.99;90.06;101476.88;5017196;28;97871;-26
2023/06/21 04:19:19;;;;;;;2.08;1.30;;;;;;;18.98;90.22;101464.16;5017032;28;96551;-26
2023/06/21 04:21:45;;;;;;;3.85;1.40;;;;;;;19.02;89.59;101464.75;5016802;28;96892;-26
2023/06/21 04:24:10;;;;;;;5.07;1.55;;;;;;;18.96;89.75;101477.16;5015865;28;99522;-27
2023/06/21 04:26:35;;;;;;;1.83;1.27;;;;;;;18.95;90.16;101472.69;5016004;28;112383;-26
2023/06/21 04:29:01;;;;;;;3.10;1.27;;;;;;;18.94;88.72;101475.56;5016719;28;96633;-27
2023/06/21 04:31:28;;;;;;;2.20;1.40;;;;;;;18.91;89.35;101487.69;5016862;28;96768;-26
2023/06/21 04:33:53;;;;;;;4.35;1.55;;;;;;;18.87;89.53;101477.94;5014935;28;100600;-26
2023/06/21 04:36:19;;;;;;;2.35;1.30;;;;;;;18.95;90.17;101493.75;5014662;28;100981;-26
2023/06/21 04:38:49;;;;;;;3.55;1.40;;;;;;;18.95;89.88;101496.50;5016718;28;96493;-27
2023/06/21 04:41:18;;;;;;;2.35;1.35;;;;;;;18.91;89.85;101503.28;5016858;28;96723;-26
2023/06/21 04:43:44;;;;;;;2.42;1.23;;;;;;;18.87;90.08;101499.91;5014971;28;100714;-26
2023/06/21 04:46:09;;;;;;;4.53;1.20;;;;;;;18.87;90.07;101499.91;5016336;28;97756;-27
2023/06/21 04:48:36;;;;;;;1.70;1.13;;;;;;;18.89;89.19;101509.75;5015856;28;96534;-26
2023/06/21 04:51:02;;;;;;;1.77;1.10;;;;;;;18.85;89.81;101504.66;5015038;28;96857;-26
2023/06/21 04:53:30;;;;;;;2.47;1.27;;;;;;;18.85;89.53;101499.16;5014788;28;100951;-27
2023/06/21 04:55:57;;;;;;;3.90;1.10;;;;;;;18.86;89.97;101512.78;5015956;28;97890;-26
2023/06/21 04:58:23;;;;;;;2.33;1.10;;;;;;;18.87;89.08;101510.91;5016687;28;96636;-27
2023/06/21 05:00:48;;;;;;;2.88;0.90;;;;;;;18.91;89.42;101520.63;5014978;28;96843;-27
2023/06/21 05:03:13;;;;;;;2.38;1.00;;;;;;;18.83;88.59;101515.78;5016049;28;97210;-27
2023/06/21 05:05:39;;;;;;;1.58;0.93;;;;;;;18.85;88.50;101518.38;5014918;28;98355;-26
2023/06/21 05:08:04;;;;;;;2.78;1.15;;;;;;;18.78;88.05;101529.06;5014821;28;96678;-27
2023/06/21 05:10:29;;;;;;;3.15;0.80;;;;;;;18.80;87.80;101515.16;5016133;28;96747;-26
2023/06/21 05:12:55;;;;;;;1.83;0.98;;;;;;;18.77;88.24;101524.53;5014658;28;117673;-28
2023/06/21 05:15:20;;;;;;;2.17;1.20;;;;;;;18.77;88.72;101520.94;5016067;28;97837;-26
2023/06/21 05:17:46;;;;;;;1.52;0.80;;;;;;;18.76;88.23;101519.13;5016093;28;96738;-27
2023/06/21 05:20:11;;;;;;;1.67;0.82;;;;;;;18.79;88.49;101524.44;5015994;28;96807;-28
2023/06/21 05:22:37;;;;;;;4.35;0.80;;;;;;;18.72;87.92;101531.41;5015797;28;97864;-26
2023/06/21 05:25:04;;;;;;;2.45;0.90;;;;;;;18.77;88.69;101532.78;5015510;28;98136;-27
2023/06/21 05:27:32;;;;;;;3.42;0.95;;;;;;;18.88;87.89;101537.38;5014519;28;96784;-26
2023/06/21 05:29:57;;;;;;;2.85;1.00;;;;;;;18.96;87.76;101537.56;5016103;28;96776;-26
2023/06/21 05:32:25;;;;;;;2.90;1.08;;;;;;;18.87;87.25;101528.22;5015331;28;99382;-26
2023/06/21 05:34:51;;;;;;;1.23;0.90;;;;;;;18.92;87.55;101547.06;5014848;28;99333;-26
2023/06/21 05:37:16;;;;;;;1.55;0.80;;;;;;;18.91;87.45;101548.06;5015393;28;96784;-27
2023/06/21 05:39:43;;;;;;;3.05;0.77;;;;;;;18.97;87.27;101552.16;5015746;28;96922;-26
2023/06/21 05:42:08;;;;;;;2.92;1.02;;;;;;;18.93;86.79;101536.97;5013762;28;101313;-26
2023/06/21 05:44:34;;;;;;;1.45;0.77;;;;;;;19.07;86.44;101545.75;5015498;28;97490;-27
2023/06/21 05:46:59;;;;;;;2.65;0.93;;;;;;;19.10;85.35;101545.47;5015245;28;96717;-26
2023/06/21 05:49:24;;;;;;;1.75;0.98;;;;;;;19.24;85.66;101551.66;5015336;28;96815;-26
2023/06/21 05:51:50;;;;;;;1.63;0.85;;;;;;;19.31;85.67;101550.97;5015149;28;112790;-28
2023/06/21 05:54:15;;;;;;;1.92;0.75;;;;;;;19.35;84.83;101539.72;5015669;28;98310;-27
2023/06/21 05:56:40;;;;;;;2.03;0.73;;;;;;;19.39;84.58;101539.31;5015285;28;96524;-27
2023/06/21 05:59:06;;;;;;;2.30;0.85;;;;;;;19.41;84.04;101539.19;5015072;28;97758;-27
2023/06/21 06:01:31;;;;;;;2.38;0.82;;;;;;;19.45;85.04;101552.53;5014144;28;111635;-26
2023/06/21 06:03:56;;;;;;;1.70;0.70;;;;;;;19.55;84.26;101574.56;5014665;28;97802;-29
2023/06/21 06:06:22;;;;;;;3.33;0.93;;;;;;;19.68;84.63;101571.63;5013241;28;96577;-30
2023/06/21 06:08:47;;;;;;;1.80;0.80;;;;;;;19.75;84.33;101578.31;5012720;28;96775;-27
2023/06/21 06:11:12;;;;;;;1.45;0.80;;;;;;;19.75;83.75;101572.81;5012235;28;100780;-27
2023/06/21 06:13:38;;;;;;;0.73;0.73;;;;;;;19.86;82.98;101575.50;5012879;28;97729;-29
2023/06/21 06:16:04;;;;;;;3.53;0.80;;;;;;;19.90;82.05;101579.72;5011254;28;96880;-32
2023/06/21 06:18:29;;;;;;;2.17;1.13;;;;;;;20.02;82.46;101585.09;5013369;28;96826;-26
2023/06/21 06:20:54;;;;;;;1.23;0.63;;;;;;;20.04;82.03;101588.59;5012519;28;112001;-27
2023/06/21 06:23:20;;;;;;;1.55;0.82;;;;;;;20.19;82.06;101594.59;5012379;28;97870;-27
2023/06/21 06:25:45;;;;;;;3.10;0.80;;;;;;;19.97;81.87;101593.78;5010733;28;97043;-27
2023/06/21 06:28:11;;;;;;;1.92;1.00;;;;;;;19.89;82.40;101596.34;5014060;28;96800;-26
2023/06/21 06:30:36;;;;;;;1.45;0.68;;;;;;;19.90;82.58;101590.72;5014483;28;98139;-26
2023/06/21 06:33:01;;;;;;;1.98;0.80;;;;;;;20.07;83.32;101596.56;5014469;28;112006;-26
2023/06/21 06:35:28;;;;;;;0.65;0.38;;;;;;;20.24;82.83;101604.19;5014598;28;96706;-27
2023/06/21 06:37:53;;;;;;;1.08;0.90;;;;;;;20.40;81.66;101594.53;5013126;28;96909;-29
2023/06/21 06:40:18;;;;;;;1.17;0.68;;;;;;;20.51;81.34;101594.41;5014358;28;99170;-26
2023/06/21 06:42:44;;;;;;;2.35;1.02;;;;;;;20.67;80.50;101604.94;5014597;28;98863;-27
2023/06/21 06:45:10;;;;;;;4.95;1.05;;;;;;;20.73;79.93;101607.97;5014744;28;96562;-27
2023/06/21 06:47:35;;;;;;;1.25;0.70;;;;;;;20.79;80.01;101612.91;5013463;28;96805;-27
2023/06/21 06:50:04;;;;;;;0.50;0.45;;;;;;;20.96;79.25;101615.97;5014057;28;97519;-27
2023/06/21 06:52:30;;;;;;;1.63;0.80;;;;;;;21.02;79.32;101620.91;5012752;28;99572;-26
2023/06/21 06:54:55;;;;;;;1.75;0.90;;;;;;;21.12;78.62;101627.31;5013222;28;96579;-26
2023/06/21 06:57:22;;;;;;;2.50;0.65;;;;;;;21.20;78.43;101630.19;5014837;28;96545;-26
2023/06/21 06:59:47;;;;;;;0.73;0.50;;;;;;;21.24;77.33;101632.66;5012912;28;101398;-26
2023/06/21 07:02:12;;;;;;;1.38;0.60;;;;;;;21.24;76.72;101622.53;5014091;28;102276;-26
2023/06/21 07:04:38;;;;;;;1.63;0.55;;;;;;;21.31;77.04;101628.31;5014548;28;96490;-27
2023/06/21 07:07:03;;;;;;;3.33;0.80;;;;;;;21.52;76.71;101636.44;5014573;28;100156;-26
2023/06/21 07:09:29;;;;;;;2.22;0.93;;;;;;;21.53;76.47;101632.69;5014104;28;99165;-26
2023/06/21 07:11:59;;;;;;;1.58;0.70;;;;;;;21.66;76.40;101640.66;5013984;28;98785;-27
2023/06/21 07:14:24;;;;;;;1.40;0.70;;;;;;;21.78;75.40;101639.47;5013859;28;97351;-26
2023/06/21 07:16:50;;;;;;;2.10;0.90;;;;;;;21.93;75.76;101646.25;5014531;28;96833;-26
2023/06/21 07:19:16;;;;;;;1.58;0.60;;;;;;;21.97;74.28;101647.69;5013770;28;99766;-27
2023/06/21 07:21:41;;;;;;;2.20;0.70;;;;;;;21.98;74.96;101643.91;5013855;28;97450;-26
2023/06/21 07:24:06;;;;;;;1.50;0.65;;;;;;;22.14;75.13;101645.16;5013834;28;101310;-26
2023/06/21 07:26:33;;;;;;;1.58;0.73;;;;;;;22.20;74.46;101647.34;5014026;28;96779;-26
2023/06/21 07:28:58;;;;;;;1.38;0.77;;;;;;;22.16;72.61;101643.13;5013780;28;99333;-26
2023/06/21 07:31:24;;;;;;;1.10;0.55;;;;;;;22.11;72.44;101651.84;5013653;28;99242;-26
2023/06/21 07:33:49;;;;;;;1.00;0.52;;;;;;;22.22;72.67;101651.72;5014115;28;96600;-26
2023/06/21 07:36:15;;;;;;;1.00;0.30;;;;;;;22.26;71.96;101647.66;5014654;28;96823;-26
2023/06/21 07:38:40;;;;;;;0.88;0.40;;;;;;;22.32;71.89;101646.16;5016798;28;98081;-28
2023/06/21 07:41:05;;;;;;;1.33;0.65;;;;;;;22.42;71.63;101649.72;5017071;28;99080;-26
2023/06/21 07:43:31;;;;;;;1.08;0.50;;;;;;;22.61;71.99;101654.28;5017456;28;96528;-26
2023/06/21 07:45:56;;;;;;;0.75;0.47;;;;;;;22.73;70.89;101651.31;5017691;28;96816;-26
2023/06/21 07:48:22;;;;;;;1.90;0.50;;;;;;;22.76;70.16;101660.16;5017239;28;97870;-26
2023/06/21 07:50:47;;;;;;;1.80;0.63;;;;;;;22.89;70.72;101659.81;5017068;28;97277;-27
2023/06/21 07:53:12;;;;;;;1.08;0.52;;;;;;;23.00;69.80;101659.63;5017639;28;96505;-27
2023/06/21 07:55:38;;;;;;;1.17;0.50;;;;;;;23.08;68.90;101662.47;5017666;28;96769;-26
2023/06/21 07:58:03;;;;;;;3.42;0.60;;;;;;;23.17;69.45;101651.47;5017175;28;97916;-26
2023/06/21 08:00:28;;;;;;;1.63;0.80;;;;;;;23.23;68.37;101659.16;5016602;28;102546;-27
2023/06/21 08:02:54;;;;;;;2.85;1.05;;;;;;;23.32;67.80;101658.22;5016693;28;96390;-26
2023/06/21 08:05:20;;;;;;;2.45;0.80;;;;;;;23.34;68.69;101658.94;5007592;28;96821;-26
2023/06/21 08:07:45;;;;;;;2.72;0.77;;;;;;;23.48;69.28;101671.34;4996706;28;99264;-27
2023/06/21 08:10:11;;;;;;;1.33;0.60;;;;;;;23.52;68.34;101665.31;4997015;28;98232;-28
2023/06/21 08:12:36;;;;;;;2.25;0.70;;;;;;;23.55;68.16;101669.69;4997119;28;96678;-26
2023/06/21 08:15:02;;;;;;;1.55;0.77;;;;;;;23.65;66.89;101672.34;4997225;28;96792;-27
2023/06/21 08:17:28;;;;;;;3.35;0.75;;;;;;;23.61;67.05;101680.09;4995313;28;100920;-27
2023/06/21 08:19:53;;;;;;;1.42;0.68;;;;;;;23.67;66.34;101687.75;4997107;28;99935;-27
2023/06/21 08:22:18;;;;;;;1.60;0.88;;;;;;;23.66;67.56;101686.00;4996291;28;99699;-27
2023/06/21 08:24:44;;;;;;;1.50;0.70;;;;;;;23.69;66.93;101680.19;4996701;28;96870;-27
2023/06/21 08:27:09;;;;;;;1.60;0.85;;;;;;;23.75;64.55;101681.44;4995847;28;99734;-26
2023/06/21 08:29:34;;;;;;;3.58;0.95;;;;;;;23.76;65.58;101691.47;4996580;28;97755;-27
2023/06/21 08:32:00;;;;;;;3.75;1.10;;;;;;;23.71;65.12;101694.69;4996697;28;96665;-27
2023/06/21 08:34:25;;;;;;;2.60;0.77;;;;;;;23.83;66.05;101684.28;4995899;28;96938;-27
2023/06/21 08:36:50;;;;;;;1.27;0.70;;;;;;;24.09;66.62;101689.81;4994959;28;101207;-26
2023/06/21 08:39:17;;;;;;;3.70;1.02;;;;;;;24.26;65.16;101695.47;4996782;28;96527;-26
2023/06/21 08:41:42;;;;;;;4.90;1.13;;;;;;;24.38;64.90;101692.28;4996424;28;96693;-26
2023/06/21 08:44:08;;;;;;;1.90;0.98;;;;;;;24.27;63.70;101694.47;4995475;28;96948;-26
2023/06/21 08:46:35;;;;;;;2.08;0.70;;;;;;;24.36;64.24;101690.72;4996174;28;98024;-27
2023/06/21 08:49:04;;;;;;;2.00;1.02;;;;;;;24.45;63.59;101705.44;4994582;28;100906;-27
2023/06/21 08:51:33;;;;;;;2.13;1.05;;;;;;;24.46;63.52;101702.56;4994482;28;96679;-27
2023/06/21 08:54:08;;;;;;;3.45;1.00;;;;;;;24.48;63.15;101706.03;4994931;28;96870;-27
2023/06/21 08:56:53;;;;;;;2.15;1.00;;;;;;;24.60;64.00;101706.63;4994686;28;100819;-26
2023/06/21 08:59:28;;;;;;;4.15;1.38;;;;;;;24.83;62.80;101717.09;4994724;28;100963;-27
2023/06/21 09:02:08;;;;;;;2.83;1.10;;;;;;;24.98;62.04;101724.63;4994841;28;96632;-27
2023/06/21 09:04:42;;;;;;;2.35;1.10;;;;;;;24.99;62.24;101728.25;4996541;28;96602;-27
2023/06/21 09:07:08;;;;;;;2.85;1.05;;;;;;;25.08;62.43;101726.38;4994490;28;101198;-27
2023/06/21 09:09:36;;;;;;;1.90;0.80;;;;;;;25.24;62.29;101714.50;4996437;28;97841;-28
2023/06/21 09:12:01;;;;;;;2.25;1.20;;;;;;;25.40;60.33;101709.84;4995472;28;98513;-27
2023/06/21 09:14:31;;;;;;;2.15;0.98;;;;;;;25.44;62.01;101713.16;5006553;28;96816;-27
2023/06/21 09:16:59;;;;;;;1.20;1.00;;;;;;;25.46;61.30;101707.41;5012468;28;99216;-28
2023/06/21 09:19:24;;;;;;;1.77;1.08;;;;;;;25.67;60.65;101721.69;5014328;28;100760;-27
2023/06/21 09:21:51;;;;;;;2.80;1.08;;;;;;;25.73;60.42;101722.91;5015826;28;96540;-27
2023/06/21 09:24:16;;;;;;;3.05;1.30;;;;;;;25.67;60.67;101713.38;5014648;28;96847;-27
2023/06/21 09:26:42;;;;;;;1.33;0.90;;;;;;;25.84;60.62;101719.78;5006047;28;106328;-27
2023/06/21 09:29:07;;;;;;;3.15;1.27;;;;;;;25.85;59.56;101727.06;4997877;28;99163;-27
2023/06/21 09:31:33;;;;;;;2.65;1.15;;;;;;;25.94;59.54;101722.41;4994432;28;96971;-27
2023/06/21 09:33:59;;;;;;;1.85;0.98;;;;;;;25.97;59.77;101720.13;4995314;28;96768;-27
2023/06/21 09:36:25;;;;;;;2.92;1.13;;;;;;;26.03;58.13;101718.59;4993358;28;97337;-27
2023/06/21 09:38:51;;;;;;;3.25;1.17;;;;;;;26.09;59.45;101717.88;4991958;28;100768;-30
2023/06/21 09:41:18;;;;;;;1.55;1.00;;;;;;;26.05;57.17;101711.81;4993243;28;97457;-27
2023/06/21 09:43:44;;;;;;;2.75;1.20;;;;;;;26.20;58.20;101716.66;4992326;28;97269;-27
2023/06/21 09:46:11;;;;;;;2.13;1.10;;;;;;;26.22;57.07;101732.09;4992995;28;98628;-30
2023/06/21 09:48:38;;;;;;;2.17;1.02;;;;;;;26.35;57.53;101730.69;4993199;28;99259;-27
2023/06/21 09:51:08;;;;;;;2.50;1.42;;;;;;;26.28;56.83;101727.75;4994854;28;96588;-26
2023/06/21 09:53:35;;;;;;;3.10;1.10;;;;;;;26.30;56.68;101734.00;4992319;28;96791;-29
2023/06/21 09:56:02;;;;;;;3.53;0.95;;;;;;;26.45;55.98;101734.13;4994840;28;99444;-27
2023/06/21 09:58:28;;;;;;;2.13;1.10;;;;;;;26.54;56.91;101727.53;4994758;28;97842;-26
2023/06/21 10:00:56;;;;;;;2.80;1.38;;;;;;;26.74;55.75;101746.59;4993833;28;96633;-26
2023/06/21 10:03:22;;;;;;;2.25;1.00;;;;;;;26.65;56.94;101743.00;4993932;28;96913;-26
2023/06/21 10:05:59;;;;;;;2.70;1.13;;;;;;;26.65;53.79;101731.88;4994605;28;97485;-27
2023/06/21 10:08:29;;;;;;;1.67;0.98;;;;;;;26.73;55.68;101745.72;4993213;28;100900;-26
2023/06/21 10:10:55;;;;;;;1.60;0.90;;;;;;;26.83;55.33;101742.72;4993852;28;96674;-26
2023/06/21 10:13:25;;;;;;;3.20;1.52;;;;;;;26.82;52.12;101749.34;4995036;28;97024;-26
2023/06/21 10:15:51;;;;;;;3.25;1.73;;;;;;;26.87;54.80;101746.91;4993515;28;101232;-27
2023/06/21 10:18:17;;;;;;;2.70;1.10;;;;;;;27.00;54.67;101751.88;4993406;28;101257;-26
2023/06/21 10:20:43;;;;;;;3.50;0.98;;;;;;;27.08;53.73;101755.50;4995018;28;96468;-27
2023/06/21 10:23:11;;;;;;;2.58;1.00;;;;;;;27.10;53.39;101756.19;4993748;28;96859;-26
2023/06/21 10:25:38;;;;;;;2.35;0.93;;;;;;;27.20;53.89;101752.34;4994828;28;97616;-27
2023/06/21 10:28:07;;;;;;;3.85;1.13;;;;;;;27.19;54.05;101745.00;4994646;28;96569;-27
2023/06/21 10:30:33;;;;;;;3.83;1.15;;;;;;;27.38;53.08;101749.28;4992968;28;96758;-26
2023/06/21 10:33:02;;;;;;;2.97;1.27;;;;;;;27.42;53.43;101754.28;4993511;28;96856;-27
2023/06/21 10:35:30;;;;;;;3.83;1.40;;;;;;;27.49;52.85;101746.94;4992129;28;101536;-26
2023/06/21 10:38:21;;;;;;;2.10;1.20;;;;;;;27.44;51.91;101762.47;4993218;28;101037;-27
2023/06/21 10:40:49;;;;;;;2.38;1.23;;;;;;;27.38;52.63;101754.84;4994963;28;96591;-26
2023/06/21 10:43:14;;;;;;;3.25;1.35;;;;;;;27.42;52.95;101767.34;4993345;28;96889;-26
2023/06/21 10:45:41;;;;;;;3.42;1.25;;;;;;;27.52;52.89;101763.25;4993139;28;99028;-26
2023/06/21 10:48:09;;;;;;;2.63;1.10;;;;;;;27.60;48.77;101764.25;4993289;28;100758;-26
2023/06/21 10:50:34;;;;;;;2.20;1.10;;;;;;;27.47;50.62;101771.31;4993314;28;96697;-26
2023/06/21 10:53:02;;;;;;;3.10;1.20;;;;;;;27.44;48.19;101765.25;4994527;28;96836;-28
2023/06/21 10:55:27;;;;;;;3.72;1.20;;;;;;;27.59;51.47;101768.97;4992487;28;100893;-26
2023/06/21 10:57:54;;;;;;;2.92;1.08;;;;;;;27.62;49.05;101774.16;4994513;28;108001;-26
2023/06/21 11:00:25;;;;;;;0.88;0.68;;;;;;;27.66;49.60;101777.44;4992888;28;96576;-27
2023/06/21 11:02:54;;;;;;;2.27;0.90;;;;;;;27.44;49.60;101781.94;4993138;28;96962;-27
2023/06/21 11:05:20;;;;;;;2.97;1.27;;;;;;;27.45;51.03;101801.22;4992828;28;98950;-26
2023/06/21 11:07:50;;;;;;;3.28;1.50;;;;;;;27.27;51.51;101795.09;4994357;28;97931;-27
2023/06/21 11:10:16;;;;;;;3.08;1.45;;;;;;;27.06;52.11;101790.09;4994061;28;96696;-27
2023/06/21 11:12:42;;;;;;;2.88;1.52;;;;;;;27.06;52.25;101801.22;4996952;28;96805;-26
2023/06/21 11:15:08;;;;;;;4.82;1.58;;;;;;;27.18;51.76;101798.91;4997668;28;98304;-27
2023/06/21 11:17:36;;;;;;;4.18;1.38;;;;;;;27.44;51.38;101809.78;4996190;28;101050;-27
2023/06/21 11:20:23;;;;;;;3.42;1.75;;;;;;;27.60;51.11;101817.16;4997360;28;96624;-27